Nearby METAR Reports

 

KARR - Chicago/Aurora, Illinois, USA
Distance from station: S 8mi, 13km
Updated: Thu, Jun-21-2018 11:52pm CDT
Overcast
Overcast
 Wind from NE
Wind: NE 12 mph , 19 km/h
Temperature: 64°F , 18°C
Dew Point: 61°F , 16°C
Humidity: 88%
Barometer: 1008.1 hPa
Clouds: Overcast
Visibility: 10 miles , 16 km
Cloud details: Overcast 2900 ft
2018/06/22 04:52 KARR 220452Z 05010KT 10SM OVC029 18/16 A2977 RMK AO2 SLP078 T01830156
KDKB - De Kalb, Illinois, USA
Distance from station: WNW 12mi, 19km
Updated: Fri, Jun-22-2018 12:35am CDT
Overcast
Overcast
 Wind from ENE
Wind: ENE 13 mph , 20 km/h
Temperature: 63°F , 17°C
Dew Point: 61°F , 16°C
Humidity: 94%
Barometer: 1008.8 hPa
Clouds: Overcast
Visibility: 10 miles , 16 km
Cloud details: Overcast 3100 ft
2018/06/22 05:35 KDKB 220535Z AUTO 06011KT 10SM OVC031 17/16 A2979 RMK AO2 T01700158
 
KDPA - Chicago/Dupage, Illinois, USA
Distance from station: E 12mi, 19km
Updated: Thu, Jun-21-2018 11:52pm CDT
Overcast
Overcast
 Wind from NE
Wind: NE 10 mph , 17 km/h
Temperature: 63°F , 17°C
Dew Point: 61°F , 16°C
Humidity: 94%
Barometer: 1008.5 hPa
Clouds: Overcast
Visibility: 9 miles , 14 km
Cloud details: Overcast 3700 ft
2018/06/22 04:52 KDPA 220452Z 05009KT 9SM OVC037 17/16 A2978 RMK AO2 RAB12E22 SLP080 P0000 T01720156
KLOT - Romeoville/Chi, Illinois, USA
Distance from station: SE 28mi, 45km
Updated: Fri, Jun-22-2018 12:35am CDT
Rain, Overcast
Rain, Overcast
 Wind from ENE
Wind: ENE 8 mph , 13 km/h
Temperature: 63°F , 17°C
Dew Point: 61°F , 16°C
Humidity: 94%
Barometer: 1007.8 hPa
Summary: Rain
Clouds: Overcast
Visibility: 4 miles , 6 km
Cloud details: Mostly cloudy 800 ft
Mostly cloudy 1200 ft
Overcast 2100 ft
2018/06/22 05:35 KLOT 220535Z AUTO 06007KT 4SM RA BKN008 BKN012 OVC021 17/16 A2976 RMK AO2 T01670162
 
KORD - Chicago O'hare, Illinois, USA
Distance from station: ENE 29mi, 46km
Updated: Thu, Jun-21-2018 11:51pm CDT
Light rain, Overcast
Light rain, Overcast
 Wind from NE
Wind: NE 10 mph , 17 km/h
Temperature: 64°F , 18°C
Dew Point: 61°F , 16°C
Humidity: 88%
Barometer: 1008.5 hPa
Summary: Light rain
Clouds: Overcast
Visibility: 9 miles , 14 km
Cloud details: Partly cloudy 3300 ft
Overcast 4100 ft
2018/06/22 04:51 KORD 220451Z 05009KT 9SM -RA SCT033 OVC041 18/16 A2978 RMK AO2 RAB46 SLP081 P0000 T01780156 $
KJOT - Joliet, Illinois, USA
Distance from station: SSE 30mi, 48km
Updated: Fri, Jun-22-2018 12:35am CDT
Heavy rain, Overcast
Heavy rain, Overcast
 Wind from NE
Wind: NE 9 mph , 15 km/h
Temperature: 64°F , 18°C
Dew Point: 64°F , 18°C
Humidity: 100%
Barometer: 1007.8 hPa
Summary: Heavy rain
Clouds: Overcast
Visibility: 3 miles , 5 km
Cloud details: Overcast 600 ft
2018/06/22 05:35 KJOT 220535Z AUTO 05008KT 3SM +RA OVC006 18/18 A2976 RMK AO2 P0033 T01750175
 
KRPJ - Rochelle/Koritz, Illinois, USA
Distance from station: W 31mi, 50km
Updated: Fri, Jun-22-2018 12:35am CDT
Overcast
Overcast
 Wind from ENE
Wind: ENE 13 mph , 20 km/h
Temperature: 63°F , 17°C
Dew Point: 59°F , 15°C
Humidity: 88%
Barometer: 1008.5 hPa
Clouds: Overcast
Visibility: 10 miles , 16 km
Cloud details: Overcast 2700 ft
2018/06/22 05:35 KRPJ 220535Z AUTO 06011KT 10SM OVC027 17/15 A2978 RMK AO2 T01730150
KC09 - Morris-Washburn, Illinois, USA
Distance from station: S 31mi, 51km
Updated: Fri, Jun-22-2018 12:35am CDT
Rain, Overcast
Rain, Overcast
 Wind from ENE
Wind: ENE 7 mph , 11 km/h
Temperature: 63°F , 17°C
Dew Point: 63°F , 17°C
Humidity: 100%
Barometer: 1007.1 hPa
Summary: Rain
Clouds: Overcast
Visibility: 4 miles , 6 km
Cloud details: Partly cloudy 800 ft
Mostly cloudy 1300 ft
Overcast 1800 ft
2018/06/22 05:35 KC09 220535Z AUTO 06006KT 4SM RA SCT008 BKN013 OVC018 17/17 A2974 RMK AO2 P0011 T01700165
 
KPWK - Palwaukee, Illinois, USA
Distance from station: ENE 34mi, 54km
Updated: Thu, Jun-21-2018 11:52pm CDT
Overcast
Overcast
 Wind from NNE
Wind: NNE 7 mph , 11 km/h
Temperature: 63°F , 17°C
Dew Point: 61°F , 16°C
Humidity: 94%
Barometer: 1009.5 hPa
Clouds: Overcast
Visibility: 10 miles , 16 km
Cloud details: Overcast 5500 ft
2018/06/22 04:52 KPWK 220452Z AUTO 02006KT 10SM OVC055 17/16 A2981 RMK AO2 RAE37 SLP091 P0001 T01670156
KMDW - Chicago, Illinois, USA
Distance from station: E 38mi, 62km
Updated: Fri, Jun-22-2018 12:20am CDT
Light drizzle, Mist, Overcast
Light drizzle, Mist, Overcast
 Wind from NNE
Wind: NNE 13 mph , 20 km/h
Temperature: 64°F , 18°C
Dew Point: 63°F , 17°C
Humidity: 94%
Barometer: 1007.8 hPa
Summary: Light drizzle, Mist
Clouds: Overcast
Visibility: 6 miles , 10 km
Cloud details: Overcast 3300 ft
2018/06/22 05:20 KMDW 220520Z 02011KT 6SM -DZ BR OVC033 18/17 A2976 RMK AO2 DZB0455E02B17RAB02E17 P0004 T01780167
 
KRFD - Rockford, Illinois, USA
Distance from station: NW 39mi, 62km
Updated: Thu, Jun-21-2018 11:54pm CDT
Overcast
Overcast
 Wind from ENE
Wind: ENE 10 mph , 17 km/h
Temperature: 64°F , 18°C
Dew Point: 57°F , 14°C
Humidity: 78%
Barometer: 1009.8 hPa
Clouds: Overcast
Visibility: 10 miles , 16 km
Cloud details: Overcast 4300 ft
2018/06/22 04:54 KRFD 220454Z 07009KT 10SM OVC043 18/14 A2982 RMK AO2 SLP095 T01780144